Time;durP1;ratioP1;P1;durP2;ratioP2;P2;SDS_P1;SDS_P2;PMS_P1;PMS_P2;Temp;Humidity;BMP_temperature;BMP_pressure;BME280_temperature;BME280_humidity;BME280_pressure;Samples;Min_cycle;Max_cycle;Signal;HPM_P1;HPM_P2
2023/09/22 00:01:35;;;;;;;1.05;0.70;;;;;11.70;92978.00;;;;7398156;19;20175;-78
2023/09/22 00:04:15;;;;;;;0.82;0.60;;;;;11.70;92967.00;;;;7400496;19;20132;-77
2023/09/22 00:06:43;;;;;;;6.18;0.70;;;;;11.70;92967.00;;;;7399850;19;20856;-77
2023/09/22 00:09:18;;;;;;;3.03;0.77;;;;;11.70;92979.00;;;;7398726;19;20247;-78
2023/09/22 00:11:52;;;;;;;1.08;0.80;;;;;11.70;92971.00;;;;7400218;19;20220;-76
2023/09/22 00:14:27;;;;;;;1.85;0.98;;;;;11.60;92983.00;;;;7398084;19;20647;-76
2023/09/22 00:17:03;;;;;;;3.08;0.93;;;;;11.60;92963.00;;;;7400072;19;20137;-77
2023/09/22 00:19:33;;;;;;;1.73;0.77;;;;;11.60;92958.00;;;;7399499;19;20160;-77
2023/09/22 00:22:07;;;;;;;1.67;0.85;;;;;11.60;92943.00;;;;7398819;19;20161;-76
2023/09/22 00:24:35;;;;;;;1.13;0.85;;;;;11.50;92953.00;;;;7400120;19;20140;-76
2023/09/22 00:27:10;;;;;;;2.45;1.02;;;;;11.50;92961.00;;;;7400726;19;20149;-76
2023/09/22 00:29:38;;;;;;;0.70;0.70;;;;;11.50;92950.00;;;;7396644;19;20220;-75
2023/09/22 00:32:13;;;;;;;1.25;0.82;;;;;11.40;92964.00;;;;7398755;19;20159;-78
2023/09/22 00:34:47;;;;;;;1.35;0.93;;;;;11.40;92971.00;;;;7398828;19;20578;-78
2023/09/22 00:37:15;;;;;;;1.38;0.90;;;;;11.40;92963.00;;;;7399780;19;20133;-77
2023/09/22 00:39:50;;;;;;;0.93;0.90;;;;;11.40;92992.00;;;;7399147;19;20180;-78
2023/09/22 00:42:18;;;;;;;1.67;0.90;;;;;11.40;92999.00;;;;7399397;19;20153;-77
2023/09/22 00:44:52;;;;;;;2.13;0.82;;;;;11.40;92991.00;;;;7398175;19;20148;-77
2023/09/22 00:47:20;;;;;;;1.10;0.90;;;;;11.40;92989.00;;;;7398678;19;20208;-77
2023/09/22 00:49:49;;;;;;;1.05;0.95;;;;;11.40;92970.00;;;;7396184;19;20144;-76
2023/09/22 00:52:25;;;;;;;2.22;1.20;;;;;11.40;92992.00;;;;7399238;19;20172;-76
2023/09/22 00:54:55;;;;;;;1.30;0.95;;;;;11.40;92986.00;;;;7398154;19;20620;-77
2023/09/22 00:57:23;;;;;;;3.35;1.25;;;;;11.40;92995.00;;;;7396368;19;20178;-77
2023/09/22 00:59:58;;;;;;;1.20;1.08;;;;;11.40;92994.00;;;;7398345;19;20167;-78
2023/09/22 01:02:40;;;;;;;2.22;0.85;;;;;11.40;93003.00;;;;7389858;19;20192;-82
2023/09/22 01:05:16;;;;;;;0.80;0.80;;;;;11.40;92993.00;;;;7399873;19;20133;-83
2023/09/22 01:07:44;;;;;;;1.30;0.80;;;;;11.30;92992.00;;;;7397828;19;20527;-84
2023/09/22 01:10:19;;;;;;;1.17;0.88;;;;;11.20;92972.00;;;;7395577;19;20587;-82
2023/09/22 01:12:49;;;;;;;1.42;1.05;;;;;11.20;92960.00;;;;7396893;19;20173;-84
2023/09/22 01:15:24;;;;;;;2.78;1.10;;;;;11.10;92963.00;;;;7397729;19;20596;-83
2023/09/22 01:17:52;;;;;;;2.85;0.98;;;;;11.10;92947.00;;;;7399129;19;20139;-82
2023/09/22 01:20:20;;;;;;;1.25;1.00;;;;;11.10;92967.00;;;;7397804;19;20145;-82
2023/09/22 01:22:54;;;;;;;0.65;0.60;;;;;11.10;92988.00;;;;7397487;19;20195;-81
2023/09/22 01:25:22;;;;;;;1.30;0.90;;;;;11.10;92982.00;;;;7396712;19;20255;-82
2023/09/22 01:27:57;;;;;;;1.40;1.10;;;;;11.00;92964.00;;;;7398717;19;20144;-83
2023/09/22 01:30:25;;;;;;;1.17;0.98;;;;;11.00;92982.00;;;;7395263;19;20166;-84
2023/09/22 01:33:02;;;;;;;0.70;0.70;;;;;11.00;92983.00;;;;7397972;19;20136;-83
2023/09/22 01:35:33;;;;;;;1.13;0.90;;;;;11.00;92977.00;;;;7398685;19;20580;-83
2023/09/22 01:38:12;;;;;;;1.23;0.90;;;;;10.90;92964.00;;;;7396669;19;20663;-82
2023/09/22 01:40:41;;;;;;;1.65;1.05;;;;;11.00;92983.00;;;;7396299;19;20141;-83
2023/09/22 01:43:19;;;;;;;1.80;0.90;;;;;10.90;92965.00;;;;7393777;19;20145;-79
2023/09/22 01:45:47;;;;;;;1.73;1.00;;;;;10.90;92956.00;;;;7396025;19;20151;-83
2023/09/22 01:48:21;;;;;;;1.05;0.82;;;;;10.90;92940.00;;;;7396554;19;20195;-82
2023/09/22 01:51:03;;;;;;;3.03;1.05;;;;;11.00;92924.00;;;;7393599;19;20208;-80
2023/09/22 01:53:39;;;;;;;2.80;0.90;;;;;10.90;92922.00;;;;7396088;19;20156;-80
2023/09/22 01:56:08;;;;;;;2.10;1.05;;;;;10.90;92917.00;;;;7390644;19;20137;-80
2023/09/22 01:58:45;;;;;;;2.20;1.02;;;;;10.90;92940.00;;;;7394806;19;20152;-80
2023/09/22 02:01:20;;;;;;;3.83;0.98;;;;;10.80;92933.00;;;;7393524;19;20730;-80
2023/09/22 02:04:00;;;;;;;1.17;0.95;;;;;10.90;92938.00;;;;7391948;19;20184;-81
2023/09/22 02:06:28;;;;;;;2.42;1.10;;;;;10.90;92933.00;;;;7393243;19;20483;-80
2023/09/22 02:09:03;;;;;;;1.30;0.93;;;;;10.80;92922.00;;;;7394895;19;20144;-79
2023/09/22 02:11:31;;;;;;;0.93;0.80;;;;;10.80;92936.00;;;;7395632;19;20160;-77
2023/09/22 02:14:07;;;;;;;0.77;0.77;;;;;10.80;92945.00;;;;7396288;19;20136;-77
2023/09/22 02:16:42;;;;;;;1.42;1.00;;;;;10.80;92954.00;;;;7395456;19;20619;-78
2023/09/22 02:19:11;;;;;;;2.42;0.80;;;;;10.80;92948.00;;;;7395975;19;20197;-80
2023/09/22 02:21:45;;;;;;;4.22;0.90;;;;;10.80;92933.00;;;;7394543;19;20142;-77
2023/09/22 02:24:20;;;;;;;3.50;1.08;;;;;10.80;92922.00;;;;7395134;19;20165;-77
2023/09/22 02:26:56;;;;;;;1.48;1.10;;;;;10.80;92928.00;;;;7396175;19;20133;-79
2023/09/22 02:29:24;;;;;;;2.08;0.80;;;;;10.80;92939.00;;;;7396056;19;20132;-79
2023/09/22 02:31:59;;;;;;;1.10;0.80;;;;;10.80;92955.00;;;;7395259;19;20136;-79
2023/09/22 02:34:29;;;;;;;3.22;1.10;;;;;10.90;92966.00;;;;7396247;19;20170;-79
2023/09/22 02:37:03;;;;;;;1.67;1.20;;;;;10.80;92958.00;;;;7394117;19;20165;-77
2023/09/22 02:39:31;;;;;;;4.53;1.30;;;;;10.80;92978.00;;;;7393229;19;20149;-78
2023/09/22 02:42:06;;;;;;;3.42;1.20;;;;;10.80;92935.00;;;;7395205;19;20152;-79
2023/09/22 02:44:36;;;;;;;4.30;1.02;;;;;10.80;92986.00;;;;7393647;19;20607;-80
2023/09/22 02:47:10;;;;;;;2.78;0.77;;;;;10.70;92972.00;;;;7394841;19;20148;-79
2023/09/22 02:49:38;;;;;;;1.85;1.00;;;;;10.70;92965.00;;;;7393883;19;20157;-79
2023/09/22 02:52:12;;;;;;;2.08;1.33;;;;;10.70;92957.00;;;;7392588;19;20217;-79
2023/09/22 02:54:40;;;;;;;4.10;0.98;;;;;10.70;92948.00;;;;7395072;19;20551;-79
2023/09/22 02:57:15;;;;;;;5.20;1.75;;;;;10.60;92945.00;;;;7393715;19;20160;-79
2023/09/22 02:59:56;;;;;;;0.93;0.90;;;;;10.60;92958.00;;;;7393507;19;20869;-79
2023/09/22 03:02:33;;;;;;;1.30;1.10;;;;;10.70;92958.00;;;;7393296;19;20254;-77
2023/09/22 03:05:08;;;;;;;1.85;1.00;;;;;10.70;92954.00;;;;7394868;19;20212;-78
2023/09/22 03:07:43;;;;;;;1.17;1.00;;;;;10.70;92955.00;;;;7393687;19;20140;-79
2023/09/22 03:10:12;;;;;;;3.97;0.98;;;;;10.60;92957.00;;;;7394602;19;20576;-79
2023/09/22 03:12:49;;;;;;;2.58;0.77;;;;;10.70;92955.00;;;;7394425;19;20168;-79
2023/09/22 03:15:18;;;;;;;1.00;0.90;;;;;10.70;92950.00;;;;7393693;19;20476;-79
2023/09/22 03:17:45;;;;;;;1.52;1.10;;;;;10.60;92944.00;;;;7397614;19;20148;-79
2023/09/22 03:20:20;;;;;;;1.80;1.00;;;;;10.60;92963.00;;;;7400723;19;20144;-79
2023/09/22 03:22:55;;;;;;;2.85;0.90;;;;;10.70;92982.00;;;;7399519;19;20525;-80
2023/09/22 03:25:29;;;;;;;6.30;1.13;;;;;10.80;92977.00;;;;7402118;19;20534;-79
2023/09/22 03:27:57;;;;;;;1.30;0.82;;;;;10.90;92972.00;;;;7400947;19;20619;-79
2023/09/22 03:30:31;;;;;;;1.00;0.90;;;;;10.80;92979.00;;;;7399796;19;20152;-80
2023/09/22 03:32:59;;;;;;;2.72;1.23;;;;;10.90;92985.00;;;;7401844;19;20160;-79
2023/09/22 03:35:36;;;;;;;1.00;0.90;;;;;10.90;92983.00;;;;7397235;19;20441;-79
2023/09/22 03:38:08;;;;;;;1.33;1.10;;;;;10.90;93003.00;;;;7400742;19;20479;-79
2023/09/22 03:40:43;;;;;;;1.83;1.10;;;;;10.90;92998.00;;;;7400824;19;20148;-79
2023/09/22 03:43:19;;;;;;;1.85;1.20;;;;;10.90;92993.00;;;;7398089;19;20219;-78
2023/09/22 03:45:53;;;;;;;1.10;0.90;;;;;10.90;92992.00;;;;7398858;19;20213;-79
2023/09/22 03:48:27;;;;;;;4.55;1.00;;;;;10.80;92988.00;;;;7401225;19;20148;-78
2023/09/22 03:50:55;;;;;;;1.73;1.00;;;;;10.80;92992.00;;;;7398928;19;20166;-79
2023/09/22 03:53:24;;;;;;;1.20;1.10;;;;;10.80;92995.00;;;;7400959;19;20137;-79
2023/09/22 03:56:07;;;;;;;0.95;0.90;;;;;10.70;92980.00;;;;7400319;19;20459;-79
2023/09/22 03:58:34;;;;;;;3.07;1.50;;;;;10.80;92986.00;;;;7399972;19;20127;-77
2023/09/22 04:01:09;;;;;;;1.27;0.98;;;;;10.80;92974.00;;;;7401288;19;20230;-79
2023/09/22 04:03:44;;;;;;;3.15;1.48;;;;;10.70;92966.00;;;;7398382;19;21093;-79
2023/09/22 04:06:19;;;;;;;2.30;1.55;;;;;10.80;92940.00;;;;7399596;19;20133;-78
2023/09/22 04:08:48;;;;;;;1.60;1.30;;;;;10.80;92951.00;;;;7399033;19;20149;-79
2023/09/22 04:11:23;;;;;;;1.20;0.75;;;;;10.80;92940.00;;;;7396346;19;20165;-79
2023/09/22 04:13:53;;;;;;;1.70;1.23;;;;;10.90;92960.00;;;;7397475;19;20164;-78
2023/09/22 04:16:28;;;;;;;1.55;1.10;;;;;10.70;92963.00;;;;7400626;19;20697;-79
2023/09/22 04:18:58;;;;;;;3.90;1.08;;;;;10.70;92961.00;;;;7399065;19;20152;-78
2023/09/22 04:21:26;;;;;;;2.35;1.67;;;;;10.80;92974.00;;;;7397599;19;20478;-79
2023/09/22 04:24:00;;;;;;;2.08;1.33;;;;;10.80;92976.00;;;;7398047;19;20145;-78
2023/09/22 04:26:42;;;;;;;1.40;1.30;;;;;10.70;92978.00;;;;7398637;19;20129;-79
2023/09/22 04:29:11;;;;;;;1.25;1.15;;;;;10.70;92981.00;;;;7397302;19;20600;-78
2023/09/22 04:31:49;;;;;;;2.15;1.38;;;;;10.70;92986.00;;;;7396777;19;20148;-86
2023/09/22 04:34:19;;;;;;;2.50;1.53;;;;;10.70;92964.00;;;;7400367;19;20140;-87
2023/09/22 04:36:54;;;;;;;2.58;1.52;;;;;10.70;92961.00;;;;7397599;19;20166;-87
2023/09/22 04:39:22;;;;;;;2.90;1.75;;;;;10.80;92972.00;;;;7399672;19;20497;-84
2023/09/22 04:41:58;;;;;;;2.55;1.98;;;;;10.90;92978.00;;;;7397772;19;20474;-87
2023/09/22 04:44:26;;;;;;;2.35;1.90;;;;;10.80;92978.00;;;;7398892;19;20138;-87
2023/09/22 04:47:01;;;;;;;4.23;2.00;;;;;11.00;92995.00;;;;7400475;19;20459;-85
2023/09/22 04:49:28;;;;;;;2.30;1.90;;;;;10.90;93003.00;;;;7398405;19;20160;-88
2023/09/22 04:52:03;;;;;;;3.00;1.85;;;;;11.00;93003.00;;;;7397561;19;20132;-85
2023/09/22 04:54:40;;;;;;;4.28;1.95;;;;;11.00;92990.00;;;;7399268;19;20480;-86
2023/09/22 04:57:16;;;;;;;2.40;1.83;;;;;11.00;92998.00;;;;7397186;19;20145;-86
2023/09/22 04:59:53;;;;;;;3.53;1.90;;;;;11.00;92999.00;;;;7397821;19;20177;-85
2023/09/22 05:02:28;;;;;;;8.63;2.20;;;;;10.90;92992.00;;;;7395763;19;20145;-87
2023/09/22 05:05:10;;;;;;;3.35;1.67;;;;;10.90;92980.00;;;;7397094;19;20140;-86
2023/09/22 05:07:44;;;;;;;2.15;1.70;;;;;11.00;92984.00;;;;7398251;19;20702;-87
2023/09/22 05:10:19;;;;;;;2.00;1.70;;;;;11.10;93011.00;;;;7397415;19;20603;-84
2023/09/22 05:12:54;;;;;;;2.72;1.60;;;;;11.00;93017.00;;;;7398223;19;20141;-86
2023/09/22 05:15:29;;;;;;;2.33;1.88;;;;;11.00;93014.00;;;;7396156;19;20136;-86
2023/09/22 05:17:57;;;;;;;2.75;1.70;;;;;11.00;93014.00;;;;7397075;19;20148;-84
2023/09/22 05:20:25;;;;;;;3.00;1.85;;;;;10.90;93022.00;;;;7398475;19;20137;-86
2023/09/22 05:23:00;;;;;;;4.35;1.77;;;;;11.10;93019.00;;;;7399151;19;20132;-86
2023/09/22 05:25:28;;;;;;;6.85;2.10;;;;;11.00;93021.00;;;;7398492;19;20148;-84
2023/09/22 05:28:02;;;;;;;3.80;1.75;;;;;11.00;93014.00;;;;7395926;19;20137;-85
2023/09/22 05:30:31;;;;;;;3.67;1.60;;;;;11.00;93037.00;;;;7395776;19;20525;-85
2023/09/22 05:33:08;;;;;;;3.90;1.80;;;;;11.10;93047.00;;;;7395461;19;20249;-86
2023/09/22 05:35:36;;;;;;;4.25;1.92;;;;;11.20;93051.00;;;;7392843;19;20169;-85
2023/09/22 05:38:04;;;;;;;3.20;1.58;;;;;11.10;93060.00;;;;7396596;19;20252;-88
2023/09/22 05:40:39;;;;;;;2.45;1.85;;;;;11.10;93062.00;;;;7394439;19;20148;-85
2023/09/22 05:43:10;;;;;;;2.53;1.90;;;;;11.00;93066.00;;;;7393014;19;20618;-78
2023/09/22 05:45:44;;;;;;;2.55;1.70;;;;;11.00;93066.00;;;;7396748;19;20149;-77
2023/09/22 05:48:20;;;;;;;2.90;1.70;;;;;11.10;93058.00;;;;7394017;19;20159;-77
2023/09/22 05:50:59;;;;;;;2.42;1.83;;;;;11.00;93061.00;;;;7397583;19;20133;-78
2023/09/22 05:53:35;;;;;;;1.80;1.60;;;;;11.00;93056.00;;;;7396517;19;20576;-77
2023/09/22 05:56:10;;;;;;;2.75;1.95;;;;;11.00;93059.00;;;;7396238;19;20475;-78
2023/09/22 05:58:46;;;;;;;2.83;1.48;;;;;11.10;93073.00;;;;7394560;19;20148;-78
2023/09/22 06:01:24;;;;;;;3.28;1.40;;;;;11.00;93073.00;;;;7393259;19;20151;-78
2023/09/22 06:04:06;;;;;;;2.63;1.50;;;;;11.10;93082.00;;;;7392310;19;20184;-77
2023/09/22 06:06:42;;;;;;;3.35;2.00;;;;;11.20;93082.00;;;;7394809;19;20137;-77
2023/09/22 06:09:21;;;;;;;2.05;1.50;;;;;11.30;93077.00;;;;7395442;19;20140;-78
2023/09/22 06:11:49;;;;;;;2.80;1.63;;;;;11.30;93074.00;;;;7392323;19;20675;-77
2023/09/22 06:14:24;;;;;;;2.40;1.50;;;;;11.40;93070.00;;;;7396318;19;20237;-77
2023/09/22 06:16:52;;;;;;;1.83;1.38;;;;;11.40;93067.00;;;;7395219;19;20622;-78
2023/09/22 06:19:28;;;;;;;6.00;1.60;;;;;11.50;93091.00;;;;7392230;19;20196;-77
2023/09/22 06:21:56;;;;;;;1.63;1.20;;;;;11.40;93078.00;;;;7394344;19;20232;-77
2023/09/22 06:24:25;;;;;;;1.80;1.50;;;;;11.30;93083.00;;;;7394465;19;20488;-78
2023/09/22 06:26:59;;;;;;;2.08;1.63;;;;;11.40;93083.00;;;;7395911;19;20196;-77
2023/09/22 06:29:27;;;;;;;4.75;1.02;;;;;11.40;93091.00;;;;7394126;19;20141;-78
2023/09/22 06:32:04;;;;;;;1.65;1.35;;;;;11.30;93081.00;;;;7391620;19;20125;-77
2023/09/22 06:34:39;;;;;;;2.55;1.33;;;;;11.30;93074.00;;;;7393065;19;20144;-79
2023/09/22 06:37:07;;;;;;;1.33;1.20;;;;;11.30;93077.00;;;;7390908;19;20165;-78
2023/09/22 06:39:44;;;;;;;2.33;1.38;;;;;11.30;93073.00;;;;7393204;19;20625;-77
2023/09/22 06:42:19;;;;;;;1.33;1.10;;;;;11.30;93063.00;;;;7393623;19;20494;-79
2023/09/22 06:44:47;;;;;;;1.30;1.20;;;;;11.30;93056.00;;;;7394020;19;20141;-77
2023/09/22 06:47:23;;;;;;;3.08;1.27;;;;;11.40;93062.00;;;;7391603;19;20484;-79
2023/09/22 06:49:51;;;;;;;3.05;1.40;;;;;11.40;93078.00;;;;7393473;19;20599;-79
2023/09/22 06:52:26;;;;;;;3.63;1.23;;;;;11.50;93077.00;;;;7390800;19;20144;-87
2023/09/22 06:54:54;;;;;;;3.83;1.40;;;;;11.60;93085.00;;;;7394739;19;20763;-86
2023/09/22 06:57:24;;;;;;;5.38;1.27;;;;;11.60;93092.00;;;;7393535;19;20144;-84
2023/09/22 07:00:00;;;;;;;1.75;1.48;;;;;11.60;93084.00;;;;7394313;19;20145;-86
2023/09/22 07:02:41;;;;;;;2.95;1.52;;;;;11.60;93078.00;;;;7389552;19;20180;-84
2023/09/22 07:05:17;;;;;;;7.95;1.70;;;;;11.60;93064.00;;;;7387314;19;20140;-84
2023/09/22 07:07:52;;;;;;;1.42;1.23;;;;;11.60;93058.00;;;;7393501;19;20497;-85
2023/09/22 07:10:20;;;;;;;1.98;1.33;;;;;11.80;93065.00;;;;7389691;19;20551;-84
2023/09/22 07:12:55;;;;;;;1.90;1.35;;;;;11.90;93065.00;;;;7391282;19;20133;-87
2023/09/22 07:15:29;;;;;;;2.83;1.48;;;;;11.90;93061.00;;;;7393339;19;20124;-85
2023/09/22 07:18:05;;;;;;;2.35;1.33;;;;;12.00;93066.00;;;;7394628;19;20129;-86
2023/09/22 07:20:46;;;;;;;1.65;1.30;;;;;12.20;93074.00;;;;7390455;19;20159;-84
2023/09/22 07:23:14;;;;;;;2.10;1.33;;;;;12.40;93071.00;;;;7394175;19;20184;-86
2023/09/22 07:26:03;;;;;;;1.67;1.38;;;;;12.60;93064.00;;;;7392452;19;20629;-85
2023/09/22 07:28:37;;;;;;;1.60;1.38;;;;;12.90;93080.00;;;;7392476;19;20236;-86
2023/09/22 07:31:14;;;;;;;1.55;1.27;;;;;12.80;93100.00;;;;7394081;19;20566;-87
2023/09/22 07:33:43;;;;;;;3.13;1.42;;;;;12.60;93105.00;;;;7390615;19;20145;-85
2023/09/22 07:36:19;;;;;;;1.85;1.42;;;;;12.50;93114.00;;;;7389326;19;20144;-87
2023/09/22 07:38:53;;;;;;;1.35;0.98;;;;;12.20;93126.00;;;;7391655;19;20624;-88
2023/09/22 07:41:28;;;;;;;1.20;1.10;;;;;12.20;93122.00;;;;7391552;19;20179;-86
2023/09/22 07:44:04;;;;;;;1.27;1.17;;;;;12.10;93118.00;;;;7390333;19;20172;-86
2023/09/22 07:46:32;;;;;;;3.55;1.23;;;;;12.20;93108.00;;;;7392881;19;20149;-87
2023/09/22 07:49:06;;;;;;;2.67;1.10;;;;;12.30;93114.00;;;;7388843;19;20540;-86
2023/09/22 07:51:42;;;;;;;1.27;1.08;;;;;12.30;93121.00;;;;7389771;19;20160;-88
2023/09/22 07:54:18;;;;;;;2.05;1.27;;;;;12.40;93129.00;;;;7391328;19;20131;-86
2023/09/22 07:56:52;;;;;;;1.92;1.60;;;;;12.50;93127.00;;;;7393426;19;20153;-79
2023/09/22 07:59:20;;;;;;;5.25;1.58;;;;;12.60;93126.00;;;;7392471;19;21225;-81
2023/09/22 08:01:55;;;;;;;2.92;1.40;;;;;12.50;93131.00;;;;7390183;19;20188;-80
2023/09/22 08:04:31;;;;;;;3.70;1.73;;;;;12.50;93128.00;;;;7391795;19;20176;-78
2023/09/22 08:07:15;;;;;;;1.60;1.50;;;;;12.40;93126.00;;;;7397890;19;20610;-79
2023/09/22 08:09:50;;;;;;;2.22;1.35;;;;;12.50;93134.00;;;;7400010;19;20599;-79
2023/09/22 08:12:24;;;;;;;1.30;1.10;;;;;12.50;93140.00;;;;7397173;19;20593;-81
2023/09/22 08:14:54;;;;;;;2.17;1.60;;;;;12.60;93137.00;;;;7399489;19;20154;-78
2023/09/22 08:17:31;;;;;;;1.73;1.48;;;;;12.70;93140.00;;;;7400577;19;20505;-79
2023/09/22 08:20:00;;;;;;;2.70;1.77;;;;;12.70;93132.00;;;;7398713;19;20150;-79
2023/09/22 08:22:34;;;;;;;3.45;1.67;;;;;12.90;93138.00;;;;7398817;19;20140;-79
2023/09/22 08:25:04;;;;;;;1.30;1.20;;;;;13.20;93126.00;;;;7397096;19;20147;-76
2023/09/22 08:27:39;;;;;;;2.38;1.40;;;;;13.30;93135.00;;;;7398691;19;20148;-78
2023/09/22 08:30:11;;;;;;;1.90;1.45;;;;;13.20;93132.00;;;;7397273;19;20606;-79
2023/09/22 08:32:48;;;;;;;1.35;0.98;;;;;13.20;93126.00;;;;7396281;19;20136;-79
2023/09/22 08:35:23;;;;;;;1.88;1.13;;;;;13.20;93128.00;;;;7399277;19;20458;-80
2023/09/22 08:38:00;;;;;;;2.65;1.20;;;;;13.30;93131.00;;;;7397202;19;20144;-79
2023/09/22 08:40:37;;;;;;;1.15;1.00;;;;;13.30;93133.00;;;;7396531;19;20133;-79
2023/09/22 08:43:13;;;;;;;4.38;1.00;;;;;13.10;93139.00;;;;7396033;19;20183;-79
2023/09/22 08:45:42;;;;;;;1.20;1.10;;;;;13.10;93129.00;;;;7396711;19;20149;-77
2023/09/22 08:48:16;;;;;;;1.55;0.98;;;;;13.30;93131.00;;;;7397677;19;20203;-77
2023/09/22 08:50:45;;;;;;;1.15;0.85;;;;;13.20;93133.00;;;;7397742;19;20179;-77
2023/09/22 08:53:19;;;;;;;2.08;1.23;;;;;13.40;93127.00;;;;7395363;19;20169;-76
2023/09/22 08:55:51;;;;;;;2.53;0.90;;;;;13.80;93130.00;;;;7397846;19;20145;-76
2023/09/22 08:58:26;;;;;;;1.20;1.00;;;;;14.10;93125.00;;;;7395549;19;21865;-77
2023/09/22 09:01:02;;;;;;;1.55;1.00;;;;;14.50;93124.00;;;;7398350;19;20631;-76
2023/09/22 09:03:31;;;;;;;0.90;0.80;;;;;14.80;93123.00;;;;7394910;19;20785;-77
2023/09/22 09:06:17;;;;;;;2.53;0.80;;;;;14.70;93131.00;;;;7398361;19;20499;-77
2023/09/22 09:09:12;;;;;;;1.02;0.80;;;;;14.60;93127.00;;;;7398606;19;20153;-77
2023/09/22 09:12:01;;;;;;;0.90;0.77;;;;;14.60;93128.00;;;;7399498;19;20152;-80
2023/09/22 09:14:38;;;;;;;1.10;0.80;;;;;14.50;93142.00;;;;7398512;19;20247;-81
2023/09/22 09:17:23;;;;;;;1.08;0.73;;;;;14.30;93141.00;;;;7396174;19;20171;-83
2023/09/22 09:20:02;;;;;;;1.58;0.60;;;;;14.30;93141.00;;;;7398831;19;20165;-80
2023/09/22 09:22:37;;;;;;;0.80;0.80;;;;;14.00;93136.00;;;;7399607;19;20616;-80
2023/09/22 09:25:09;;;;;;;1.23;0.70;;;;;14.10;93133.00;;;;7396602;19;20172;-80
2023/09/22 09:27:44;;;;;;;3.33;0.90;;;;;14.20;93146.00;;;;7397047;19;20483;-82
2023/09/22 09:30:19;;;;;;;1.23;0.85;;;;;14.00;93141.00;;;;7398063;19;20132;-81
2023/09/22 09:33:12;;;;;;;1.85;1.00;;;;;13.80;93133.00;;;;7396277;19;20137;-80
2023/09/22 09:35:41;;;;;;;1.13;0.60;;;;;13.90;93117.00;;;;7394685;19;20173;-79
2023/09/22 09:38:20;;;;;;;1.42;0.68;;;;;14.70;93115.00;;;;7398102;19;20179;-80
2023/09/22 09:40:50;;;;;;;0.80;0.75;;;;;15.50;93139.00;;;;7397368;19;20175;-80
2023/09/22 09:43:25;;;;;;;2.90;0.68;;;;;15.60;93128.00;;;;7396691;19;20583;-82
2023/09/22 09:45:59;;;;;;;0.50;0.50;;;;;15.80;93132.00;;;;7395273;19;20145;-80
2023/09/22 09:48:39;;;;;;;1.88;0.73;;;;;16.10;93126.00;;;;7395311;19;20129;-81
2023/09/22 09:51:12;;;;;;;0.80;0.40;;;;;16.40;93128.00;;;;7390510;19;20543;-80
2023/09/22 09:53:50;;;;;;;1.98;0.60;;;;;16.20;93136.00;;;;7394828;19;20615;-83
2023/09/22 09:56:18;;;;;;;1.40;0.70;;;;;16.20;93118.00;;;;7393574;19;20125;-82
2023/09/22 09:58:48;;;;;;;1.38;0.75;;;;;16.10;93147.00;;;;7394543;19;20160;-81
2023/09/22 10:01:32;;;;;;;1.77;0.70;;;;;15.60;93147.00;;;;7395474;19;20151;-80
2023/09/22 10:04:20;;;;;;;0.65;0.65;;;;;15.20;93140.00;;;;7393057;19;20619;-86
2023/09/22 10:07:01;;;;;;;0.65;0.65;;;;;15.70;93116.00;;;;7393706;19;20141;-82
2023/09/22 10:09:32;;;;;;;0.98;0.60;;;;;16.30;93130.00;;;;7394446;19;20587;-84
2023/09/22 10:12:08;;;;;;;1.35;1.10;;;;;16.20;93132.00;;;;7394558;19;20163;-83
2023/09/22 10:14:46;;;;;;;1.48;0.60;;;;;15.60;93136.00;;;;7386813;19;20496;-83
2023/09/22 10:17:22;;;;;;;2.78;0.75;;;;;15.00;93119.00;;;;7389159;19;20148;-84
2023/09/22 10:19:59;;;;;;;1.20;0.63;;;;;15.30;93117.00;;;;7387090;19;20136;-79
2023/09/22 10:22:30;;;;;;;1.05;0.70;;;;;15.50;93118.00;;;;7391262;19;20143;-83
2023/09/22 10:25:13;;;;;;;0.50;0.50;;;;;15.90;93107.00;;;;7384950;19;20777;-84
2023/09/22 10:27:59;;;;;;;0.90;0.52;;;;;16.00;93107.00;;;;7386863;19;20512;-80
2023/09/22 10:30:46;;;;;;;4.35;0.55;;;;;16.10;93107.00;;;;7390392;19;20133;-84
2023/09/22 10:33:30;;;;;;;1.38;0.80;;;;;16.20;93119.00;;;;7387836;19;20192;-77
2023/09/22 10:36:04;;;;;;;1.67;0.65;;;;;16.30;93103.00;;;;7389866;19;20204;-77
2023/09/22 10:38:56;;;;;;;0.65;0.63;;;;;16.30;93132.00;;;;7384892;19;20807;-76
2023/09/22 10:41:31;;;;;;;0.90;0.70;;;;;15.60;93130.00;;;;7388357;19;20624;-76
2023/09/22 10:44:00;;;;;;;1.70;0.70;;;;;15.20;93133.00;;;;7385698;19;20465;-76
2023/09/22 10:46:28;;;;;;;3.75;0.90;;;;;15.80;93131.00;;;;7388348;19;20227;-76
2023/09/22 10:49:02;;;;;;;1.25;0.70;;;;;15.80;93125.00;;;;7386897;19;21121;-76
2023/09/22 10:51:46;;;;;;;1.80;0.73;;;;;16.10;93132.00;;;;7388362;19;20603;-76
2023/09/22 10:54:20;;;;;;;1.85;0.57;;;;;16.20;93141.00;;;;7386587;19;20509;-76
2023/09/22 10:56:56;;;;;;;1.65;0.80;;;;;16.40;93125.00;;;;7386822;19;20148;-76
2023/09/22 10:59:33;;;;;;;1.98;0.75;;;;;16.30;93127.00;;;;7385139;19;20179;-78
2023/09/22 11:02:07;;;;;;;0.82;0.65;;;;;16.60;93121.00;;;;7384599;19;20171;-75
2023/09/22 11:04:49;;;;;;;1.95;1.00;;;;;16.50;93108.00;;;;7384356;19;20172;-76
2023/09/22 11:07:33;;;;;;;0.68;0.63;;;;;17.30;93107.00;;;;7386976;19;20155;-75
2023/09/22 11:10:22;;;;;;;2.15;0.90;;;;;16.80;93134.00;;;;7386852;19;20144;-74
2023/09/22 11:12:56;;;;;;;0.85;0.63;;;;;16.30;93129.00;;;;7389306;19;20147;-74
2023/09/22 11:15:31;;;;;;;2.42;0.80;;;;;16.90;93119.00;;;;7378448;19;20155;-74
2023/09/22 11:17:59;;;;;;;0.70;0.70;;;;;17.30;93094.00;;;;7386093;19;20580;-75
2023/09/22 11:20:34;;;;;;;0.88;0.65;;;;;17.20;93117.00;;;;7386701;19;20139;-76
2023/09/22 11:23:09;;;;;;;2.10;0.65;;;;;17.60;93119.00;;;;7387115;19;20160;-75
2023/09/22 11:25:53;;;;;;;0.60;0.60;;;;;16.90;93140.00;;;;7383672;19;20171;-75
2023/09/22 11:28:22;;;;;;;1.08;0.60;;;;;16.50;93141.00;;;;7383636;19;20148;-76
2023/09/22 11:31:15;;;;;;;1.67;0.80;;;;;15.90;93135.00;;;;7388614;19;20595;-75
2023/09/22 11:33:45;;;;;;;2.80;0.85;;;;;16.40;93143.00;;;;7386444;19;20169;-75
2023/09/22 11:36:26;;;;;;;0.82;0.50;;;;;17.20;93126.00;;;;7386596;19;20164;-75
2023/09/22 11:39:01;;;;;;;1.25;0.80;;;;;17.20;93132.00;;;;7383646;19;20173;-75
2023/09/22 11:41:35;;;;;;;4.13;0.88;;;;;17.10;93118.00;;;;7393194;19;20128;-76
2023/09/22 11:44:13;;;;;;;2.08;0.95;;;;;17.40;93138.00;;;;7391763;19;20157;-77
2023/09/22 11:46:50;;;;;;;2.45;1.17;;;;;17.10;93132.00;;;;7392111;19;20157;-76
2023/09/22 11:49:36;;;;;;;1.02;0.90;;;;;17.20;93144.00;;;;7391026;19;20599;-76
2023/09/22 11:52:04;;;;;;;1.42;0.90;;;;;17.70;93128.00;;;;7393596;19;20791;-76
2023/09/22 11:54:41;;;;;;;1.20;1.00;;;;;18.20;93128.00;;;;7393951;19;20502;-77
2023/09/22 11:57:15;;;;;;;2.92;0.90;;;;;18.50;93114.00;;;;7391820;19;20157;-76
2023/09/22 12:00:00;;;;;;;1.85;0.98;;;;;18.80;93122.00;;;;7391574;19;20132;-77
2023/09/22 12:02:35;;;;;;;1.95;0.82;;;;;18.40;93123.00;;;;7390673;19;20156;-77
2023/09/22 12:05:11;;;;;;;3.10;1.00;;;;;17.90;93120.00;;;;7385980;19;20156;-76
2023/09/22 12:07:45;;;;;;;1.83;0.88;;;;;17.80;93111.00;;;;7395092;19;20204;-77
2023/09/22 12:10:21;;;;;;;1.42;0.90;;;;;17.40;93111.00;;;;7394477;19;20170;-76
2023/09/22 12:12:49;;;;;;;2.78;0.88;;;;;17.30;93097.00;;;;7399199;19;20117;-79
2023/09/22 12:15:24;;;;;;;3.75;1.00;;;;;17.80;93100.00;;;;7395328;19;20587;-77
2023/09/22 12:17:52;;;;;;;3.03;0.90;;;;;18.30;93099.00;;;;7396004;19;20145;-77
2023/09/22 12:20:26;;;;;;;1.92;0.85;;;;;17.80;93101.00;;;;7400683;19;20176;-78
2023/09/22 12:22:54;;;;;;;2.22;0.90;;;;;18.40;93094.00;;;;7398310;19;20145;-76
2023/09/22 12:25:30;;;;;;;2.38;0.98;;;;;18.80;93074.00;;;;7399314;19;20668;-77
2023/09/22 12:28:04;;;;;;;2.65;0.98;;;;;20.30;93072.00;;;;7398463;19;20125;-77
2023/09/22 12:30:32;;;;;;;1.48;1.08;;;;;21.30;93073.00;;;;7399791;19;20133;-78
2023/09/22 12:33:00;;;;;;;1.65;0.90;;;;;20.60;93073.00;;;;7398006;19;20140;-77
2023/09/22 12:35:34;;;;;;;1.10;0.90;;;;;21.00;93080.00;;;;7396322;19;20583;-76
2023/09/22 12:38:02;;;;;;;0.88;0.80;;;;;20.70;93072.00;;;;7399378;19;20149;-78
2023/09/22 12:40:30;;;;;;;3.00;1.10;;;;;20.80;93065.00;;;;7392726;19;20117;-77
2023/09/22 12:43:05;;;;;;;2.42;1.23;;;;;20.50;93070.00;;;;7400587;19;20129;-77
2023/09/22 12:45:39;;;;;;;1.40;1.10;;;;;20.90;93078.00;;;;7397981;19;20136;-77
2023/09/22 12:48:07;;;;;;;2.97;1.00;;;;;21.10;93094.00;;;;7397523;19;20117;-77
2023/09/22 12:50:42;;;;;;;2.67;1.20;;;;;21.30;93068.00;;;;7398396;19;20128;-78
2023/09/22 12:53:18;;;;;;;2.45;1.10;;;;;20.60;93082.00;;;;7397872;19;20136;-73